createdAt,value
2018-07-06T00:01:48.814Z,2.50
2018-07-06T00:06:08.994Z,2.57
2018-07-06T00:10:29.175Z,3.10
2018-07-06T00:14:50.237Z,2.20
2018-07-06T00:19:10.564Z,2.60
2018-07-06T00:23:30.768Z,2.63
2018-07-06T00:27:50.931Z,2.37
2018-07-06T00:32:11.208Z,2.27
2018-07-06T00:36:31.461Z,2.10
2018-07-06T00:40:51.679Z,2.57
2018-07-06T00:45:11.899Z,2.50
2018-07-06T00:49:31.967Z,2.60
2018-07-06T00:53:52.101Z,3.03
2018-07-06T00:58:12.303Z,1.93
2018-07-06T01:02:32.365Z,2.60
2018-07-06T01:06:52.564Z,2.60
2018-07-06T01:11:12.670Z,2.47
2018-07-06T01:15:35.708Z,2.20
2018-07-06T01:19:57.252Z,2.83
2018-07-06T01:24:17.269Z,2.10
2018-07-06T01:28:37.335Z,2.50
2018-07-06T01:32:57.443Z,2.40
2018-07-06T01:37:17.583Z,2.90
2018-07-06T01:41:37.738Z,2.63
2018-07-06T01:45:57.706Z,2.87
2018-07-06T01:50:18.013Z,2.27
2018-07-06T01:54:38.340Z,2.80
2018-07-06T01:58:58.479Z,2.77
2018-07-06T02:03:18.624Z,2.57
2018-07-06T02:07:38.832Z,3.07
2018-07-06T02:11:59.061Z,2.70
2018-07-06T02:16:19.216Z,3.30
2018-07-06T02:20:39.383Z,2.83
2018-07-06T02:24:59.417Z,3.13
2018-07-06T02:29:19.548Z,3.23
2018-07-06T02:33:39.807Z,3.00
2018-07-06T02:38:00.015Z,2.83
2018-07-06T02:42:20.302Z,4.00
2018-07-06T02:46:34.769Z,3.93
2018-07-06T02:50:54.966Z,3.77
2018-07-06T02:55:15.083Z,4.27
2018-07-06T02:59:35.181Z,3.77
2018-07-06T03:03:55.640Z,3.23
2018-07-06T03:08:15.835Z,4.50
2018-07-06T03:12:35.884Z,4.20
2018-07-06T03:16:56.147Z,4.57
2018-07-06T03:21:16.294Z,3.80
2018-07-06T03:25:36.725Z,5.40
2018-07-06T03:29:56.848Z,4.73
2018-07-06T03:34:11.278Z,3.50
2018-07-06T03:38:31.365Z,6.50
2018-07-06T03:42:51.650Z,6.47
2018-07-06T03:47:11.886Z,5.90
2018-07-06T03:51:32.336Z,6.87
2018-07-06T03:55:46.566Z,6.90
2018-07-06T04:00:06.771Z,6.57
2018-07-06T04:04:27.051Z,6.30
2018-07-06T04:08:47.070Z,6.43
2018-07-06T04:13:07.247Z,6.33
2018-07-06T04:17:27.466Z,6.57
2018-07-06T04:21:47.572Z,5.47
2018-07-06T04:26:07.935Z,6.10
2018-07-06T04:30:28.003Z,8.13
2018-07-06T04:34:48.179Z,7.53
2018-07-06T04:39:08.278Z,9.40
2018-07-06T04:43:28.544Z,8.03
2018-07-06T04:47:48.798Z,6.97
2018-07-06T04:52:08.938Z,11.03
2018-07-06T04:56:29.128Z,7.87
2018-07-06T05:00:49.359Z,10.70
2018-07-06T05:05:09.501Z,11.53
2018-07-06T05:09:29.621Z,8.27
2018-07-06T05:13:49.668Z,11.87
2018-07-06T05:18:09.814Z,12.40
2018-07-06T05:22:24.213Z,12.27
2018-07-06T05:26:44.461Z,8.73
2018-07-06T05:31:04.713Z,6.40
2018-07-06T05:35:24.749Z,11.13
2018-07-06T05:39:45.075Z,10.30
2018-07-06T05:44:05.396Z,8.60
2018-07-06T05:48:25.525Z,10.67
2018-07-06T05:52:45.702Z,11.27
2018-07-06T05:57:06.006Z,11.87
2018-07-06T06:01:26.042Z,12.43
2018-07-06T06:05:46.264Z,8.57
2018-07-06T06:09:55.083Z,12.23
2018-07-06T06:13:58.090Z,13.37
2018-07-06T06:18:00.858Z,10.87
2018-07-06T06:22:03.716Z,11.57
2018-07-06T06:26:06.580Z,11.83
2018-07-06T06:30:09.548Z,8.90
2018-07-06T06:34:12.528Z,10.37
2018-07-06T06:38:15.405Z,9.13
2018-07-06T06:42:18.549Z,11.10
2018-07-06T06:46:21.433Z,10.30
2018-07-06T06:50:24.442Z,12.20
2018-07-06T06:54:27.386Z,11.23
2018-07-06T06:58:30.346Z,12.73
2018-07-06T07:02:33.302Z,11.43
2018-07-06T07:06:36.259Z,8.83
2018-07-06T07:10:39.131Z,9.07
2018-07-06T07:14:42.030Z,12.03
2018-07-06T07:18:44.897Z,11.93
2018-07-06T07:22:47.877Z,11.97
2018-07-06T07:26:50.789Z,12.87
2018-07-06T07:30:53.665Z,11.63
2018-07-06T07:34:56.534Z,12.40
2018-07-06T07:38:59.610Z,9.90
2018-07-06T07:43:02.505Z,11.93
2018-07-06T07:47:05.641Z,10.23
2018-07-06T07:51:51.973Z,11.83
2018-07-06T07:55:54.874Z,12.47
2018-07-06T07:59:57.741Z,12.13
2018-07-06T08:04:00.647Z,11.70
2018-07-06T08:08:03.582Z,8.57
2018-07-06T08:12:07.270Z,10.47
2018-07-06T08:16:10.260Z,11.03
2018-07-06T08:20:13.291Z,10.53
2018-07-06T08:24:16.762Z,10.77
2018-07-06T08:28:19.570Z,11.53
2018-07-06T08:32:22.500Z,9.83
2018-07-06T08:36:39.324Z,9.67
2018-07-06T08:40:42.167Z,10.00
2018-07-06T08:44:45.108Z,9.37
2018-07-06T08:48:48.105Z,9.20
2018-07-06T08:52:51.929Z,8.10
2018-07-06T08:56:54.815Z,8.10
2018-07-06T09:00:57.769Z,9.23
2018-07-06T09:05:01.389Z,7.60
2018-07-06T09:09:04.487Z,6.83
2018-07-06T09:13:07.678Z,6.40
2018-07-06T09:17:13.154Z,7.40
2018-07-06T09:21:15.938Z,6.50
2018-07-06T09:25:19.146Z,7.50
2018-07-06T09:29:22.218Z,8.47
2018-07-06T09:33:25.163Z,8.90
2018-07-06T09:37:28.020Z,8.27
2018-07-06T09:41:32.787Z,7.30
2018-07-06T09:45:35.618Z,7.70
2018-07-06T09:49:38.807Z,7.03
2018-07-06T09:53:42.003Z,7.17
2018-07-06T09:57:44.885Z,6.87
2018-07-06T10:01:47.774Z,6.13
2018-07-06T10:05:50.647Z,5.20
2018-07-06T10:09:53.656Z,4.87
2018-07-06T10:13:56.352Z,5.03
2018-07-06T10:17:59.278Z,3.93
2018-07-06T10:22:02.088Z,4.70
2018-07-06T10:26:05.027Z,4.57
2018-07-06T10:30:14.342Z,4.57
2018-07-06T10:34:17.925Z,4.20
2018-07-06T10:38:20.746Z,3.90
2018-07-06T10:42:23.610Z,4.30
2018-07-06T10:46:26.448Z,4.00
2018-07-06T10:50:29.358Z,4.63
2018-07-06T10:54:32.192Z,4.00
2018-07-06T10:58:34.979Z,3.70
2018-07-06T11:02:37.757Z,3.70
2018-07-06T11:06:40.599Z,3.40
2018-07-06T11:10:43.359Z,2.97
2018-07-06T11:14:46.128Z,3.07
2018-07-06T11:18:48.926Z,3.67
2018-07-06T11:22:51.709Z,3.40
2018-07-06T11:26:54.488Z,3.10
2018-07-06T11:30:57.345Z,3.47
2018-07-06T11:35:00.001Z,2.73
2018-07-06T11:39:04.464Z,3.33
2018-07-06T11:43:07.153Z,2.70
2018-07-06T11:47:10.119Z,2.83
2018-07-06T11:51:12.911Z,3.03
2018-07-06T11:55:15.769Z,2.90
2018-07-06T11:59:18.596Z,3.30
2018-07-06T12:03:22.158Z,2.97
2018-07-06T12:07:25.140Z,2.90
2018-07-06T12:11:27.997Z,3.00
2018-07-06T12:15:30.828Z,2.90
2018-07-06T12:19:33.701Z,3.07
2018-07-06T12:23:36.547Z,3.80
2018-07-06T12:27:39.412Z,2.60
2018-07-06T12:31:42.304Z,3.43
2018-07-06T12:35:46.257Z,3.23
2018-07-06T12:39:49.212Z,2.60
2018-07-06T12:43:52.091Z,3.00
2018-07-06T12:47:54.903Z,2.70
2018-07-06T12:51:57.744Z,3.33
2018-07-06T12:56:00.619Z,2.83
2018-07-06T13:00:03.502Z,3.50
2018-07-06T13:04:06.396Z,4.20
2018-07-06T13:08:09.170Z,4.40
2018-07-06T13:12:11.960Z,2.77
2018-07-06T13:16:14.835Z,3.80
2018-07-06T13:20:17.673Z,3.17
2018-07-06T13:24:20.497Z,3.23
2018-07-06T13:28:23.441Z,3.37
2018-07-06T13:32:26.291Z,3.03
2018-07-06T13:36:29.133Z,3.43
2018-07-06T13:40:32.811Z,2.70
2018-07-06T13:44:35.653Z,2.93
2018-07-06T13:48:38.494Z,3.13
2018-07-06T13:52:41.285Z,2.90
2018-07-06T13:56:44.305Z,2.87
2018-07-06T14:00:47.834Z,3.20
2018-07-06T14:04:50.722Z,3.20
2018-07-06T14:08:53.578Z,2.93
2018-07-06T14:12:56.440Z,3.33
2018-07-06T14:16:59.301Z,3.20
2018-07-06T14:21:02.168Z,2.70
2018-07-06T14:25:05.027Z,3.43
2018-07-06T14:29:07.825Z,2.87
2018-07-06T14:33:10.686Z,3.27
2018-07-06T14:37:13.605Z,2.90
2018-07-06T14:41:16.453Z,2.97
2018-07-06T14:45:20.044Z,2.90
2018-07-06T14:49:22.844Z,3.00
2018-07-06T14:53:25.740Z,2.83
2018-07-06T14:57:28.587Z,3.00
2018-07-06T15:01:31.444Z,2.63
2018-07-06T15:05:35.164Z,3.00
2018-07-06T15:09:38.029Z,3.03
2018-07-06T15:13:40.872Z,2.80
2018-07-06T15:17:45.864Z,2.90
2018-07-06T15:21:48.742Z,2.60
2018-07-06T15:25:58.018Z,2.80
2018-07-06T15:30:01.016Z,2.60
2018-07-06T15:34:04.041Z,2.90
2018-07-06T15:38:06.884Z,2.90
2018-07-06T15:42:10.802Z,2.77
2018-07-06T15:46:13.588Z,2.67
2018-07-06T15:50:16.454Z,3.27
2018-07-06T15:54:21.433Z,2.57
2018-07-06T15:58:24.342Z,2.90
2018-07-06T16:02:27.221Z,2.97
2018-07-06T16:06:30.081Z,2.97
2018-07-06T16:10:32.946Z,3.40
2018-07-06T16:14:36.097Z,3.43
2018-07-06T16:18:39.065Z,3.00
2018-07-06T16:22:41.912Z,2.93
2018-07-06T16:26:51.429Z,2.60
2018-07-06T16:30:54.285Z,2.60
2018-07-06T16:34:57.077Z,2.87
2018-07-06T16:38:59.909Z,2.43
2018-07-06T16:43:02.864Z,3.30
2018-07-06T16:47:05.724Z,2.80
2018-07-06T16:51:08.534Z,3.33
2018-07-06T16:55:11.413Z,3.20
2018-07-06T16:59:14.338Z,3.03
2018-07-06T17:03:17.189Z,3.10
2018-07-06T17:07:20.132Z,2.30
2018-07-06T17:11:22.975Z,3.43
2018-07-06T17:15:25.779Z,3.30
2018-07-06T17:19:28.622Z,3.00
2018-07-06T17:23:31.465Z,3.27
2018-07-06T17:27:34.492Z,3.43
2018-07-06T17:31:37.591Z,2.90
2018-07-06T17:35:40.424Z,2.77
2018-07-06T17:39:43.349Z,2.97
2018-07-06T17:43:46.152Z,2.60
2018-07-06T17:47:49.008Z,2.83
2018-07-06T17:51:51.791Z,2.33
2018-07-06T17:55:54.544Z,2.47
2018-07-06T17:59:57.488Z,1.93
2018-07-06T18:04:00.362Z,2.17
2018-07-06T18:08:03.286Z,2.50
2018-07-06T18:12:06.120Z,3.03
2018-07-06T18:16:09.103Z,2.53
2018-07-06T18:20:11.949Z,2.20
2018-07-06T18:24:14.779Z,2.10
2018-07-06T18:28:17.642Z,2.20
2018-07-06T18:32:20.467Z,2.07
2018-07-06T18:36:23.283Z,1.80
2018-07-06T18:40:26.074Z,1.67
2018-07-06T18:44:28.932Z,1.73
2018-07-06T18:48:31.810Z,1.60
2018-07-06T18:52:34.624Z,1.30
2018-07-06T18:56:37.519Z,1.50
2018-07-06T19:00:40.395Z,1.80
2018-07-06T19:04:44.163Z,1.70
2018-07-06T19:08:46.986Z,2.10
2018-07-06T19:12:49.859Z,2.00
2018-07-06T19:16:52.734Z,2.07
2018-07-06T19:20:55.524Z,2.07
2018-07-06T19:24:58.436Z,1.57
2018-07-06T19:29:01.383Z,1.30
2018-07-06T19:33:04.278Z,1.83
2018-07-06T19:37:07.157Z,1.20
2018-07-06T19:41:10.005Z,1.40
2018-07-06T19:45:12.966Z,1.43
2018-07-06T19:49:15.890Z,1.53
2018-07-06T19:53:18.730Z,1.50
2018-07-06T19:57:21.535Z,1.50
2018-07-06T20:01:24.398Z,1.77
2018-07-06T20:05:27.222Z,1.60
2018-07-06T20:09:30.101Z,1.37
2018-07-06T20:15:23.377Z,1.87
2018-07-06T20:19:26.313Z,1.77
2018-07-06T20:23:29.289Z,2.33
2018-07-06T20:27:32.221Z,1.60
2018-07-06T20:31:35.083Z,2.90
2018-07-06T20:35:38.173Z,3.37
2018-07-06T20:39:41.046Z,3.47
2018-07-06T20:43:43.862Z,4.43
2018-07-06T20:47:46.838Z,4.97
2018-07-06T20:51:51.154Z,4.13
2018-07-06T20:55:54.000Z,2.20
2018-07-06T20:59:56.925Z,3.07
2018-07-06T21:03:59.817Z,1.83
2018-07-06T21:08:02.653Z,2.87
2018-07-06T21:12:05.516Z,1.40
2018-07-06T21:16:08.302Z,1.93
2018-07-06T21:20:11.167Z,2.60
2018-07-06T21:24:14.019Z,1.47
2018-07-06T21:28:17.339Z,1.73
2018-07-06T21:36:30.089Z,0.80
2018-07-06T21:40:32.889Z,1.13
2018-07-06T21:44:35.871Z,1.33
2018-07-06T21:48:38.660Z,1.33
2018-07-06T21:52:41.446Z,1.10
2018-07-06T21:56:44.277Z,0.80
2018-07-06T22:00:47.069Z,1.10
2018-07-06T22:04:49.980Z,0.50
2018-07-06T22:08:53.101Z,1.50
2018-07-06T22:12:56.030Z,1.13
2018-07-06T22:16:58.926Z,0.80
2018-07-06T22:21:01.704Z,0.70
2018-07-06T22:25:04.679Z,0.80
2018-07-06T22:29:07.525Z,0.80
2018-07-06T22:33:10.327Z,0.90
2018-07-06T22:37:13.213Z,0.80
2018-07-06T22:41:16.380Z,0.90
2018-07-06T22:45:19.447Z,0.90
2018-07-06T22:49:22.351Z,0.90
2018-07-06T22:53:25.297Z,0.70
2018-07-06T22:57:35.252Z,0.90
2018-07-06T23:01:38.145Z,0.90
2018-07-06T23:05:41.020Z,0.80
2018-07-06T23:09:43.906Z,0.70
2018-07-06T23:13:46.670Z,0.60
2018-07-06T23:17:49.619Z,0.60
2018-07-06T23:21:52.819Z,0.77
2018-07-06T23:25:55.710Z,0.63
2018-07-06T23:29:58.595Z,0.90
2018-07-06T23:34:01.585Z,0.80
2018-07-06T23:38:11.253Z,0.70
2018-07-06T23:42:14.145Z,1.27
2018-07-06T23:46:16.938Z,1.17
2018-07-06T23:50:20.527Z,0.73
2018-07-06T23:54:23.423Z,0.80
2018-07-06T23:58:26.187Z,1.50
